Time;durP1;ratioP1;P1;durP2;ratioP2;P2;SDS_P1;SDS_P2;PMS_P1;PMS_P2;Temp;Humidity;BMP_temperature;BMP_pressure;BME280_temperature;BME280_humidity;BME280_pressure;Samples;Min_cycle;Max_cycle;Signal;HPM_P1;HPM_P2
2023/01/20 00:01:13;;;;;;;1999.90;999.90;;;2.20;99.90;;;;;;5011988;28;20177;-73
2023/01/20 00:03:40;;;;;;;1999.90;999.90;;;2.10;99.90;;;;;;5014895;28;20224;-73
2023/01/20 00:06:06;;;;;;;1999.90;999.90;;;2.20;99.90;;;;;;5015620;28;20211;-73
2023/01/20 00:08:32;;;;;;;1999.90;999.90;;;2.20;99.90;;;;;;5015933;28;20197;-73
2023/01/20 00:10:58;;;;;;;1999.90;999.90;;;2.20;99.90;;;;;;5015654;28;20200;-73
2023/01/20 00:13:23;;;;;;;1999.90;999.90;;;2.20;99.90;;;;;;5015649;28;20195;-73
2023/01/20 00:15:49;;;;;;;1999.90;999.90;;;2.20;99.90;;;;;;5015570;28;20165;-73
2023/01/20 00:18:15;;;;;;;1999.90;999.90;;;2.20;99.90;;;;;;5015633;28;20165;-73
2023/01/20 00:20:41;;;;;;;1999.90;999.90;;;2.10;99.90;;;;;;5015425;28;20173;-73
2023/01/20 00:23:06;;;;;;;1999.90;999.90;;;2.10;99.90;;;;;;5015565;28;20207;-73
2023/01/20 00:25:35;;;;;;;1999.90;999.90;;;2.10;99.90;;;;;;5015535;28;21154;-73
2023/01/20 00:28:00;;;;;;;1999.90;999.90;;;2.00;99.90;;;;;;5015556;28;20204;-73
2023/01/20 00:30:26;;;;;;;1999.90;999.90;;;2.00;99.90;;;;;;5015315;28;20201;-73
2023/01/20 00:32:52;;;;;;;1999.90;999.90;;;2.00;99.90;;;;;;5015368;28;20181;-73
2023/01/20 00:35:18;;;;;;;1999.90;999.90;;;2.00;99.90;;;;;;5015309;28;20199;-73
2023/01/20 00:37:43;;;;;;;1999.90;999.90;;;2.10;99.90;;;;;;5015233;28;20260;-73
2023/01/20 00:40:09;;;;;;;1999.90;999.90;;;2.00;99.90;;;;;;5015063;28;20181;-73
2023/01/20 00:42:35;;;;;;;1999.90;999.90;;;2.00;99.90;;;;;;5015157;28;20558;-73
2023/01/20 00:45:01;;;;;;;1999.90;999.90;;;2.10;99.90;;;;;;5014938;28;20209;-73
2023/01/20 00:47:26;;;;;;;1999.90;999.90;;;2.10;99.90;;;;;;5015013;28;20522;-73
2023/01/20 00:49:52;;;;;;;1999.90;999.90;;;2.10;99.90;;;;;;5014842;28;20169;-73
2023/01/20 00:52:17;;;;;;;1999.90;999.90;;;2.10;99.90;;;;;;5014977;28;20181;-73
2023/01/20 00:54:44;;;;;;;1999.90;999.90;;;2.10;99.90;;;;;;5014995;28;20173;-72
2023/01/20 00:57:10;;;;;;;1999.90;999.90;;;2.10;99.90;;;;;;5014727;28;20163;-74
2023/01/20 00:59:35;;;;;;;1999.90;999.90;;;2.00;99.90;;;;;;5014645;28;20177;-73
2023/01/20 01:02:01;;;;;;;1999.90;999.90;;;2.20;99.90;;;;;;5014757;28;20168;-73
2023/01/20 01:04:27;;;;;;;1999.90;999.90;;;2.10;99.90;;;;;;5014926;28;20599;-73
2023/01/20 01:06:52;;;;;;;1999.90;999.90;;;2.10;99.90;;;;;;5014539;28;20232;-73
2023/01/20 01:09:20;;;;;;;1999.90;999.90;;;2.10;99.90;;;;;;5014500;28;20172;-73
2023/01/20 01:11:46;;;;;;;1999.90;999.90;;;2.10;99.90;;;;;;5014656;28;20184;-74
2023/01/20 01:14:12;;;;;;;1999.90;999.90;;;2.10;99.90;;;;;;5014075;28;20207;-73
2023/01/20 01:16:37;;;;;;;1999.90;999.90;;;2.10;99.90;;;;;;5014431;28;20173;-72
2023/01/20 01:19:03;;;;;;;1999.90;999.90;;;2.10;99.90;;;;;;5014442;28;20169;-72
2023/01/20 01:21:29;;;;;;;1999.90;999.90;;;2.10;99.90;;;;;;5014539;28;20228;-71
2023/01/20 01:23:54;;;;;;;1999.90;999.90;;;2.20;99.90;;;;;;5014384;28;20246;-72
2023/01/20 01:26:20;;;;;;;1999.90;999.90;;;2.20;99.90;;;;;;5014227;28;20200;-72
2023/01/20 01:28:49;;;;;;;1999.90;999.90;;;2.20;99.90;;;;;;5014142;28;20204;-72
2023/01/20 01:31:16;;;;;;;1999.90;999.90;;;2.20;99.90;;;;;;5014431;28;20577;-72
2023/01/20 01:33:42;;;;;;;1999.90;999.90;;;2.30;99.90;;;;;;5014266;28;20197;-72
2023/01/20 01:36:12;;;;;;;1999.90;999.90;;;2.40;99.90;;;;;;5014096;28;20239;-72
2023/01/20 01:38:37;;;;;;;1999.90;999.90;;;2.30;99.90;;;;;;5014491;28;20196;-72
2023/01/20 01:41:03;;;;;;;1999.90;999.90;;;2.20;99.90;;;;;;5014032;28;20216;-71
2023/01/20 01:43:32;;;;;;;1999.90;999.90;;;2.20;99.90;;;;;;5013845;28;20247;-72
2023/01/20 01:45:58;;;;;;;1999.90;999.90;;;2.20;99.90;;;;;;5013785;28;20196;-72
2023/01/20 01:48:35;;;;;;;1999.90;999.90;;;2.20;99.90;;;;;;5013964;28;20239;-72
2023/01/20 01:51:13;;;;;;;1999.90;999.90;;;2.20;99.90;;;;;;5013781;28;20251;-72
2023/01/20 01:53:46;;;;;;;1999.90;999.90;;;2.20;99.90;;;;;;5013839;28;20196;-72
2023/01/20 01:56:12;;;;;;;1999.90;999.90;;;2.20;99.90;;;;;;5013744;28;20264;-72
2023/01/20 01:58:42;;;;;;;1999.90;999.90;;;2.20;99.90;;;;;;5013714;28;20543;-72
2023/01/20 02:01:08;;;;;;;1999.90;999.90;;;2.30;99.90;;;;;;5013764;28;20582;-72
2023/01/20 02:03:53;;;;;;;1999.90;999.90;;;2.30;99.90;;;;;;5013654;28;20251;-72
2023/01/20 02:06:21;;;;;;;1999.90;999.90;;;2.30;99.90;;;;;;5013480;28;20456;-72
2023/01/20 02:08:47;;;;;;;1999.90;999.90;;;2.30;99.90;;;;;;5013414;28;20172;-72
2023/01/20 02:11:13;;;;;;;1999.90;999.90;;;2.40;99.90;;;;;;5013522;28;20183;-72
2023/01/20 02:13:39;;;;;;;1999.90;999.90;;;2.40;99.90;;;;;;5013439;28;20188;-72
2023/01/20 02:16:17;;;;;;;1999.90;999.90;;;2.30;99.90;;;;;;5013595;28;20697;-71
2023/01/20 02:19:05;;;;;;;1999.90;999.90;;;2.30;99.90;;;;;;5013246;28;20274;-72
2023/01/20 02:21:50;;;;;;;1999.90;999.90;;;2.40;99.90;;;;;;5013407;28;20264;-71
2023/01/20 02:24:39;;;;;;;1999.90;999.90;;;2.30;99.90;;;;;;5013076;28;20263;-72
2023/01/20 02:27:27;;;;;;;1999.90;999.90;;;2.30;99.90;;;;;;5013060;28;20260;-72
2023/01/20 02:30:10;;;;;;;1999.90;999.90;;;2.30;99.90;;;;;;5013084;28;20161;-72
2023/01/20 02:32:35;;;;;;;1999.90;999.90;;;2.20;99.90;;;;;;5013211;28;20208;-72
2023/01/20 02:35:12;;;;;;;1999.90;999.90;;;2.20;99.90;;;;;;5013281;28;20165;-72
2023/01/20 02:37:54;;;;;;;1999.90;999.90;;;2.10;99.90;;;;;;5013362;28;20806;-72
2023/01/20 02:40:46;;;;;;;1999.90;999.90;;;2.10;99.90;;;;;;5012899;28;20264;-72
2023/01/20 02:43:25;;;;;;;1999.90;999.90;;;2.10;99.90;;;;;;5012741;28;20201;-72
2023/01/20 02:46:05;;;;;;;1999.90;999.90;;;2.10;99.90;;;;;;5012744;28;20535;-72
2023/01/20 02:48:42;;;;;;;1999.90;999.90;;;2.10;99.90;;;;;;5012895;28;20630;-72
2023/01/20 02:51:10;;;;;;;1999.90;999.90;;;2.10;99.90;;;;;;5012882;28;20230;-72
2023/01/20 02:53:46;;;;;;;1999.90;999.90;;;2.10;99.90;;;;;;5012724;28;20647;-72
2023/01/20 02:56:12;;;;;;;1999.90;999.90;;;2.10;99.90;;;;;;5012750;28;20212;-72
2023/01/20 02:58:49;;;;;;;1999.90;999.90;;;2.10;99.90;;;;;;5012573;28;20165;-72
2023/01/20 03:01:27;;;;;;;1999.90;999.90;;;2.00;99.90;;;;;;5012666;28;20181;-72
2023/01/20 03:03:57;;;;;;;1999.90;999.90;;;2.00;99.90;;;;;;5012623;28;20196;-72
2023/01/20 03:06:27;;;;;;;1999.90;999.90;;;1.90;99.90;;;;;;5012374;28;20284;-72
2023/01/20 03:08:55;;;;;;;1999.90;999.90;;;1.90;99.90;;;;;;5012438;28;20165;-71
2023/01/20 03:11:20;;;;;;;1999.90;999.90;;;1.90;99.90;;;;;;5012637;28;20184;-72
2023/01/20 03:14:00;;;;;;;1999.90;999.90;;;1.90;99.90;;;;;;5012379;28;20176;-72
2023/01/20 03:16:27;;;;;;;1999.90;999.90;;;1.90;99.90;;;;;;5012384;28;20184;-72
2023/01/20 03:18:54;;;;;;;1999.90;999.90;;;1.90;99.90;;;;;;5012210;28;20200;-72
2023/01/20 03:21:20;;;;;;;1999.90;999.90;;;1.90;99.90;;;;;;5012360;28;20176;-72
2023/01/20 03:23:51;;;;;;;1999.90;999.90;;;1.90;99.90;;;;;;5012169;28;20231;-72
2023/01/20 03:26:19;;;;;;;1999.90;999.90;;;1.80;99.90;;;;;;5012164;28;20195;-72
2023/01/20 03:28:47;;;;;;;1999.90;999.90;;;1.80;99.90;;;;;;5012051;28;20200;-72
2023/01/20 03:31:25;;;;;;;1999.90;999.90;;;1.70;99.90;;;;;;5012179;28;20181;-72
2023/01/20 03:33:54;;;;;;;1999.90;999.90;;;1.70;99.90;;;;;;5012240;28;20188;-72
2023/01/20 03:36:23;;;;;;;1999.90;999.90;;;1.70;99.90;;;;;;5012277;28;20188;-72
2023/01/20 03:38:50;;;;;;;1999.90;999.90;;;1.60;99.90;;;;;;5012185;28;20259;-72
2023/01/20 03:41:33;;;;;;;1999.90;999.90;;;1.70;99.90;;;;;;5012154;28;20173;-72
2023/01/20 03:44:15;;;;;;;1999.90;999.90;;;1.60;99.90;;;;;;5012025;28;20247;-72
2023/01/20 03:46:55;;;;;;;1999.90;999.90;;;1.70;99.90;;;;;;5012060;28;20240;-72
2023/01/20 03:49:32;;;;;;;1999.90;999.90;;;1.70;99.90;;;;;;5012002;28;20165;-71
2023/01/20 03:52:01;;;;;;;1999.90;999.90;;;1.80;99.90;;;;;;5012067;28;20173;-72
2023/01/20 03:54:33;;;;;;;1999.90;999.90;;;1.70;99.90;;;;;;5012097;28;20172;-72
2023/01/20 03:57:05;;;;;;;1999.90;999.90;;;1.80;99.90;;;;;;5012838;28;20181;-72
2023/01/20 03:59:37;;;;;;;1999.90;999.90;;;1.80;99.90;;;;;;5012594;28;20566;-72
2023/01/20 04:02:05;;;;;;;1999.90;999.90;;;1.80;99.90;;;;;;5012676;28;20176;-72
2023/01/20 04:04:35;;;;;;;1999.90;999.90;;;1.80;99.90;;;;;;5012850;28;20176;-72
2023/01/20 04:07:04;;;;;;;1999.90;999.90;;;1.70;99.90;;;;;;5012323;28;20312;-72
2023/01/20 04:09:34;;;;;;;1999.90;999.90;;;1.70;99.90;;;;;;5012623;28;20224;-72
2023/01/20 04:12:00;;;;;;;1999.90;999.90;;;1.60;99.90;;;;;;5011648;28;20264;-72
2023/01/20 04:14:25;;;;;;;1999.90;999.90;;;1.70;99.90;;;;;;5013147;28;20272;-73
2023/01/20 04:16:54;;;;;;;1999.90;999.90;;;1.70;99.90;;;;;;5013140;28;20170;-73
2023/01/20 04:19:20;;;;;;;1999.90;999.90;;;1.70;99.90;;;;;;5013529;28;20544;-73
2023/01/20 04:22:09;;;;;;;1999.90;999.90;;;1.80;99.90;;;;;;5013384;28;20173;-73
2023/01/20 04:25:00;;;;;;;1999.90;999.90;;;1.80;99.90;;;;;;5005443;28;20192;-73
2023/01/20 04:27:25;;;;;;;1999.90;999.90;;;1.90;99.90;;;;;;5013610;28;20243;-73
2023/01/20 04:29:51;;;;;;;1999.90;999.90;;;1.90;99.90;;;;;;5013786;28;20173;-73
2023/01/20 04:32:16;;;;;;;1999.90;999.90;;;1.90;99.90;;;;;;5016520;28;20572;-73
2023/01/20 04:34:42;;;;;;;1999.90;999.90;;;2.00;99.90;;;;;;5015714;28;20173;-73
2023/01/20 04:37:08;;;;;;;1999.90;999.90;;;2.10;99.90;;;;;;5012842;28;20176;-73
2023/01/20 04:39:33;;;;;;;1999.90;999.90;;;2.10;99.90;;;;;;5013032;28;20177;-73
2023/01/20 04:41:59;;;;;;;1999.90;999.90;;;2.20;99.90;;;;;;5013526;28;20256;-73
2023/01/20 04:44:24;;;;;;;1999.90;999.90;;;2.20;99.90;;;;;;5013568;28;20189;-73
2023/01/20 04:46:54;;;;;;;1999.90;999.90;;;2.20;99.90;;;;;;5013364;28;20228;-73
2023/01/20 04:49:20;;;;;;;1999.90;999.90;;;2.20;99.90;;;;;;5014798;28;20260;-73
2023/01/20 04:51:45;;;;;;;1999.90;999.90;;;2.30;99.90;;;;;;5015821;28;20205;-73
2023/01/20 04:54:11;;;;;;;1999.90;999.90;;;2.30;99.90;;;;;;5016818;28;20193;-73
2023/01/20 04:56:36;;;;;;;1999.90;999.90;;;2.30;99.90;;;;;;5016837;28;20197;-73
2023/01/20 04:59:02;;;;;;;1999.90;999.90;;;2.30;99.90;;;;;;5016709;28;20264;-72
2023/01/20 05:01:27;;;;;;;1999.90;999.90;;;2.30;99.90;;;;;;5016853;28;20169;-72
2023/01/20 05:03:53;;;;;;;1999.90;999.90;;;2.20;99.90;;;;;;5016391;28;20204;-73
2023/01/20 05:06:19;;;;;;;1999.90;999.90;;;2.20;99.90;;;;;;5016628;28;20208;-73
2023/01/20 05:08:44;;;;;;;1999.90;999.90;;;2.30;99.90;;;;;;5016562;28;20252;-73
2023/01/20 05:11:10;;;;;;;1999.90;999.90;;;2.30;99.90;;;;;;5016339;28;20227;-73
2023/01/20 05:13:38;;;;;;;1999.90;999.90;;;2.30;99.90;;;;;;5016317;28;20201;-73
2023/01/20 05:16:05;;;;;;;1999.90;999.90;;;2.30;99.90;;;;;;5016410;28;20189;-73
2023/01/20 05:18:32;;;;;;;1999.90;999.90;;;2.30;99.90;;;;;;5015987;28;20635;-73
2023/01/20 05:20:58;;;;;;;1999.90;999.90;;;2.30;99.90;;;;;;5015942;28;20208;-73
2023/01/20 05:23:24;;;;;;;1999.90;999.90;;;2.20;99.90;;;;;;5016151;28;20215;-73
2023/01/20 05:25:50;;;;;;;1999.90;999.90;;;2.20;99.90;;;;;;5015814;28;20201;-73
2023/01/20 05:28:16;;;;;;;1999.90;999.90;;;2.20;99.90;;;;;;5016165;28;20222;-73
2023/01/20 05:30:42;;;;;;;1999.90;999.90;;;2.20;99.90;;;;;;5015985;28;20256;-73
2023/01/20 05:33:07;;;;;;;1999.90;999.90;;;2.20;99.90;;;;;;5015582;28;20243;-73
2023/01/20 05:35:33;;;;;;;1999.90;999.90;;;2.20;99.90;;;;;;5016102;28;20677;-73
2023/01/20 05:37:58;;;;;;;1999.90;999.90;;;2.20;99.90;;;;;;5015405;28;20634;-73
2023/01/20 05:40:24;;;;;;;1999.90;999.90;;;2.20;99.90;;;;;;5015607;28;20192;-73
2023/01/20 05:42:50;;;;;;;1999.90;999.90;;;2.20;99.90;;;;;;5015546;28;20284;-73
2023/01/20 05:45:15;;;;;;;1999.90;999.90;;;2.20;99.90;;;;;;5015709;28;20197;-73
2023/01/20 05:47:41;;;;;;;1999.90;999.90;;;2.20;99.90;;;;;;5015516;28;20216;-72
2023/01/20 05:50:07;;;;;;;1999.90;999.90;;;2.20;99.90;;;;;;5015227;28;20165;-72
2023/01/20 05:52:33;;;;;;;1999.90;999.90;;;2.10;99.90;;;;;;5015456;28;20607;-73
2023/01/20 05:54:58;;;;;;;1999.90;999.90;;;2.10;99.90;;;;;;5015366;28;20173;-73
2023/01/20 05:57:25;;;;;;;1999.90;999.90;;;2.20;99.90;;;;;;5015503;28;20255;-73
2023/01/20 05:59:51;;;;;;;1999.90;999.90;;;2.10;99.90;;;;;;5014546;28;20177;-73
2023/01/20 06:02:18;;;;;;;1999.90;999.90;;;2.10;99.90;;;;;;5015686;28;20205;-73
2023/01/20 06:04:45;;;;;;;1999.90;999.90;;;2.10;99.90;;;;;;5015249;28;20165;-73
2023/01/20 06:07:10;;;;;;;1999.90;999.90;;;2.10;99.90;;;;;;5015279;28;20200;-73
2023/01/20 06:09:36;;;;;;;1999.90;999.90;;;2.10;99.90;;;;;;5015002;28;20623;-73
2023/01/20 06:12:02;;;;;;;1999.90;999.90;;;2.10;99.90;;;;;;5014899;28;20162;-73
2023/01/20 06:14:27;;;;;;;1999.90;999.90;;;2.10;99.90;;;;;;5015227;28;20173;-73
2023/01/20 06:16:53;;;;;;;1999.90;999.90;;;2.00;99.90;;;;;;5015110;28;20168;-73
2023/01/20 06:19:18;;;;;;;1999.90;999.90;;;2.00;99.90;;;;;;5014862;28;20695;-73
2023/01/20 06:21:46;;;;;;;1999.90;999.90;;;2.00;99.90;;;;;;5015148;28;20173;-73
2023/01/20 06:24:11;;;;;;;1999.90;999.90;;;2.10;99.90;;;;;;5014802;28;20189;-73
2023/01/20 06:26:37;;;;;;;1999.90;999.90;;;2.20;99.90;;;;;;5014709;28;20259;-72
2023/01/20 06:29:02;;;;;;;1999.90;999.90;;;2.10;99.90;;;;;;5015133;28;20175;-73
2023/01/20 06:31:28;;;;;;;1999.90;999.90;;;2.20;99.90;;;;;;5014911;28;20658;-72
2023/01/20 06:33:55;;;;;;;1999.90;999.90;;;2.10;99.90;;;;;;5017299;28;20247;-73
2023/01/20 06:36:21;;;;;;;1999.90;999.90;;;2.20;99.90;;;;;;5018234;28;20261;-73
2023/01/20 06:38:49;;;;;;;1999.90;999.90;;;2.10;99.90;;;;;;5015819;28;20408;-73
2023/01/20 06:41:16;;;;;;;1999.90;999.90;;;2.20;99.90;;;;;;5015789;28;20185;-73
2023/01/20 06:43:42;;;;;;;1999.90;999.90;;;2.20;99.90;;;;;;5014845;28;20201;-73
2023/01/20 06:46:12;;;;;;;1999.90;999.90;;;2.20;99.90;;;;;;5014506;28;20205;-73
2023/01/20 06:48:38;;;;;;;1999.90;999.90;;;2.20;99.90;;;;;;5014573;28;20396;-72
2023/01/20 06:51:07;;;;;;;1999.90;999.90;;;2.20;99.90;;;;;;5014167;28;20260;-73
2023/01/20 06:53:33;;;;;;;1999.90;999.90;;;2.20;99.90;;;;;;5014223;28;20420;-73
2023/01/20 06:55:59;;;;;;;1999.90;999.90;;;2.20;99.90;;;;;;5014467;28;20173;-73
2023/01/20 06:58:30;;;;;;;1999.90;999.90;;;2.20;99.90;;;;;;5014371;28;20674;-73
2023/01/20 07:00:56;;;;;;;1999.90;999.90;;;2.30;99.90;;;;;;5013942;28;20643;-73
2023/01/20 07:03:22;;;;;;;1999.90;999.90;;;2.30;99.90;;;;;;5014136;28;20196;-73
2023/01/20 07:05:58;;;;;;;1999.90;999.90;;;2.20;99.90;;;;;;5014068;28;20396;-73
2023/01/20 07:08:24;;;;;;;1999.90;999.90;;;2.20;99.90;;;;;;5013930;28;20172;-73
2023/01/20 07:10:50;;;;;;;1999.90;999.90;;;2.20;99.90;;;;;;5013715;28;20177;-73
2023/01/20 07:13:15;;;;;;;1999.90;999.90;;;2.50;99.90;;;;;;5013717;28;20264;-73
2023/01/20 07:15:41;;;;;;;1999.90;999.90;;;2.20;99.90;;;;;;5014064;28;20176;-72
2023/01/20 07:18:07;;;;;;;1999.90;999.90;;;2.10;99.90;;;;;;5014417;28;20642;-72
2023/01/20 07:20:32;;;;;;;1999.90;999.90;;;2.20;99.90;;;;;;5013920;28;20225;-73
2023/01/20 07:22:59;;;;;;;1999.90;999.90;;;2.20;99.90;;;;;;5013882;28;20342;-73
2023/01/20 07:25:25;;;;;;;1999.90;999.90;;;2.20;99.90;;;;;;5013972;28;20919;-73
2023/01/20 07:27:50;;;;;;;1999.90;999.90;;;2.20;99.90;;;;;;5014135;28;20169;-73
2023/01/20 07:30:16;;;;;;;1999.90;999.90;;;2.20;99.90;;;;;;5013833;28;20559;-73
2023/01/20 07:32:42;;;;;;;1999.90;999.90;;;2.20;99.90;;;;;;5013911;28;20193;-73
2023/01/20 07:35:08;;;;;;;1999.90;999.90;;;2.20;99.90;;;;;;5014076;28;20408;-73
2023/01/20 07:37:36;;;;;;;1999.90;999.90;;;2.20;99.90;;;;;;5013736;28;20172;-73
2023/01/20 07:40:02;;;;;;;1999.90;999.90;;;2.10;99.90;;;;;;5012044;28;20545;-72
2023/01/20 07:42:27;;;;;;;1999.90;999.90;;;2.10;99.90;;;;;;5012226;28;20279;-72
2023/01/20 07:44:53;;;;;;;1999.90;999.90;;;2.10;99.90;;;;;;5012133;28;20181;-72
2023/01/20 07:47:18;;;;;;;1999.90;999.90;;;2.10;99.90;;;;;;5012100;28;20165;-72
2023/01/20 07:49:44;;;;;;;1999.90;999.90;;;2.10;99.90;;;;;;5011811;28;20173;-72
2023/01/20 07:52:10;;;;;;;1999.90;999.90;;;2.10;99.90;;;;;;5011943;28;20169;-72
2023/01/20 07:54:35;;;;;;;1999.90;999.90;;;2.00;99.90;;;;;;5012048;28;20173;-72
2023/01/20 07:57:01;;;;;;;1999.90;999.90;;;2.00;99.90;;;;;;5012212;28;20172;-72
2023/01/20 07:59:27;;;;;;;1999.90;999.90;;;2.10;99.90;;;;;;5011890;28;20169;-71
2023/01/20 08:01:53;;;;;;;1999.90;999.90;;;2.10;99.90;;;;;;5011991;28;20177;-72
2023/01/20 08:04:19;;;;;;;1999.90;999.90;;;2.10;99.90;;;;;;5011786;28;20685;-71
2023/01/20 08:06:45;;;;;;;1999.90;999.90;;;2.10;99.90;;;;;;5011717;28;20447;-72
2023/01/20 08:09:13;;;;;;;1999.90;999.90;;;2.10;99.90;;;;;;5011749;28;20169;-72
2023/01/20 08:11:39;;;;;;;1999.90;999.90;;;2.10;99.90;;;;;;5011995;28;20198;-72
2023/01/20 08:14:06;;;;;;;1999.90;999.90;;;2.20;99.90;;;;;;5011782;28;20557;-72
2023/01/20 08:16:31;;;;;;;1999.90;999.90;;;2.20;99.90;;;;;;5011902;28;20181;-72
2023/01/20 08:18:57;;;;;;;1999.90;999.90;;;2.20;99.90;;;;;;5011591;28;20177;-72
2023/01/20 08:21:29;;;;;;;1999.90;999.90;;;2.30;99.90;;;;;;5011974;28;20408;-72
2023/01/20 08:23:56;;;;;;;1999.90;999.90;;;2.40;99.90;;;;;;5013427;28;20196;-72
2023/01/20 08:26:26;;;;;;;1999.90;999.90;;;2.50;99.90;;;;;;5015366;28;20296;-72
2023/01/20 08:28:51;;;;;;;1999.90;999.90;;;2.50;99.90;;;;;;5015309;28;20173;-72
2023/01/20 08:31:20;;;;;;;1999.90;999.90;;;2.50;99.90;;;;;;5015443;28;20238;-72
2023/01/20 08:33:46;;;;;;;1999.90;999.90;;;2.50;99.90;;;;;;5015249;28;20185;-72
2023/01/20 08:36:18;;;;;;;1999.90;999.90;;;2.50;99.90;;;;;;5015640;28;20189;-72
2023/01/20 08:38:45;;;;;;;1999.90;999.90;;;2.40;99.90;;;;;;5015130;28;20169;-72
2023/01/20 08:41:15;;;;;;;1999.90;999.90;;;2.40;99.90;;;;;;5015336;28;20181;-72
2023/01/20 08:43:40;;;;;;;1999.90;999.90;;;2.50;99.90;;;;;;5015032;28;20212;-72
2023/01/20 08:46:09;;;;;;;1999.90;999.90;;;2.60;99.90;;;;;;5014928;28;20197;-72
2023/01/20 08:48:36;;;;;;;1999.90;999.90;;;2.70;99.90;;;;;;5015177;28;20157;-72
2023/01/20 08:51:08;;;;;;;1999.90;999.90;;;2.80;99.90;;;;;;5014799;28;20169;-72
2023/01/20 08:53:35;;;;;;;1999.90;999.90;;;2.80;99.90;;;;;;5014886;28;20185;-72
2023/01/20 08:56:01;;;;;;;1999.90;999.90;;;2.80;99.90;;;;;;5014781;28;20177;-72
2023/01/20 08:58:27;;;;;;;1999.90;999.90;;;2.90;99.90;;;;;;5014900;28;20245;-72
2023/01/20 09:00:54;;;;;;;1999.90;999.90;;;2.90;99.90;;;;;;5014702;28;20177;-72
2023/01/20 09:03:20;;;;;;;1999.90;999.90;;;3.00;99.90;;;;;;5014738;28;20235;-72
2023/01/20 09:05:46;;;;;;;1999.90;999.90;;;2.90;99.90;;;;;;5014509;28;20535;-72
2023/01/20 09:08:12;;;;;;;1999.90;999.90;;;3.10;99.90;;;;;;5014692;28;20252;-72
2023/01/20 09:10:38;;;;;;;1999.90;999.90;;;3.20;99.90;;;;;;5014527;28;20404;-72
2023/01/20 09:13:03;;;;;;;1999.90;999.90;;;3.30;99.90;;;;;;5014569;28;20429;-72
2023/01/20 09:15:29;;;;;;;1999.90;999.90;;;3.30;99.90;;;;;;5014660;28;20173;-72
2023/01/20 09:17:55;;;;;;;1999.90;999.90;;;3.10;99.90;;;;;;5014496;28;20200;-72
2023/01/20 09:20:20;;;;;;;1999.90;999.90;;;3.20;99.90;;;;;;5014369;28;20215;-72
2023/01/20 09:22:46;;;;;;;1999.90;999.90;;;3.10;99.90;;;;;;5014496;28;20201;-72
2023/01/20 09:25:12;;;;;;;1999.90;999.90;;;3.00;99.90;;;;;;5014409;28;20169;-72
2023/01/20 09:27:37;;;;;;;1999.90;999.90;;;3.10;99.90;;;;;;5014229;28;20176;-72
2023/01/20 09:30:03;;;;;;;1999.90;999.90;;;3.10;99.90;;;;;;5014198;28;20466;-72
2023/01/20 09:32:29;;;;;;;1999.90;999.90;;;3.10;99.90;;;;;;5014262;28;20192;-72
2023/01/20 09:34:55;;;;;;;1999.90;999.90;;;3.10;99.90;;;;;;5013951;28;20192;-72
2023/01/20 09:43:53;;;;;;;1999.90;999.90;;;2.90;99.90;;;;;;5013976;28;20760;-72
2023/01/20 09:46:32;;;;;;;1999.90;999.90;;;2.90;99.90;;;;;;5013806;28;20189;-72
2023/01/20 09:55:37;;;;;;;1999.90;999.90;;;2.90;99.90;;;;;;5013439;28;20717;-72
2023/01/20 09:58:38;;;;;;;1999.90;999.90;;;2.90;99.90;;;;;;5013833;28;20623;-72
2023/01/20 10:01:17;;;;;;;1999.90;999.90;;;2.90;99.90;;;;;;5013723;28;20490;-72
2023/01/20 10:04:26;;;;;;;1999.90;999.90;;;2.80;99.90;;;;;;5013845;28;20204;-72
2023/01/20 10:07:08;;;;;;;1999.90;999.90;;;2.80;99.90;;;;;;5010534;28;20209;-72
2023/01/20 10:09:53;;;;;;;1999.90;999.90;;;2.80;99.90;;;;;;5013500;28;20220;-72
2023/01/20 10:12:26;;;;;;;1999.90;999.90;;;2.90;99.90;;;;;;5013604;28;20243;-72
2023/01/20 10:15:23;;;;;;;1999.90;999.90;;;3.00;99.90;;;;;;5013575;28;20193;-72
2023/01/20 10:18:24;;;;;;;1999.90;999.90;;;3.00;99.90;;;;;;5007730;28;20269;-72
2023/01/20 10:20:49;;;;;;;1999.90;999.90;;;3.10;99.90;;;;;;5013319;28;20256;-72
2023/01/20 10:23:33;;;;;;;1999.90;999.90;;;3.00;99.90;;;;;;5013298;28;20272;-72
2023/01/20 10:26:12;;;;;;;1999.90;999.90;;;3.10;99.90;;;;;;5013141;28;20232;-72
2023/01/20 10:29:00;;;;;;;1999.90;999.90;;;3.10;99.90;;;;;;5013255;28;20172;-72
2023/01/20 10:31:29;;;;;;;1999.90;999.90;;;3.10;99.90;;;;;;5013261;28;20547;-72
2023/01/20 10:34:00;;;;;;;1999.90;999.90;;;3.20;99.90;;;;;;5013003;28;20335;-72
2023/01/20 10:36:30;;;;;;;1999.90;999.90;;;3.20;99.90;;;;;;5013002;28;20169;-72
2023/01/20 10:39:25;;;;;;;1999.90;999.90;;;3.20;99.90;;;;;;5013043;28;20454;-72
2023/01/20 10:41:56;;;;;;;1999.90;999.90;;;3.30;99.90;;;;;;5004845;28;20588;-72
2023/01/20 10:44:22;;;;;;;1999.90;999.90;;;3.20;99.90;;;;;;5013092;28;20196;-72
2023/01/20 10:46:55;;;;;;;1999.90;999.90;;;3.30;99.90;;;;;;5012138;28;20192;-72
2023/01/20 10:49:38;;;;;;;1999.90;999.90;;;3.30;99.90;;;;;;5012779;28;20181;-72
2023/01/20 10:52:07;;;;;;;1999.90;999.90;;;3.70;99.90;;;;;;5012898;28;20499;-72
2023/01/20 10:54:47;;;;;;;1999.90;999.90;;;3.30;99.90;;;;;;5012856;28;20201;-72
2023/01/20 10:57:14;;;;;;;1999.90;999.90;;;3.30;99.90;;;;;;5012613;28;20890;-72
2023/01/20 10:59:42;;;;;;;1999.90;999.90;;;3.40;99.90;;;;;;5012831;28;20675;-72
2023/01/20 11:02:18;;;;;;;1999.90;999.90;;;2.80;99.90;;;;;;5012547;28;20192;-72
2023/01/20 11:04:48;;;;;;;1999.90;999.90;;;3.40;99.90;;;;;;5012740;28;20177;-72
2023/01/20 11:07:17;;;;;;;1999.90;999.90;;;3.40;99.90;;;;;;5012469;28;20207;-72
2023/01/20 11:09:45;;;;;;;1999.90;999.90;;;3.40;99.90;;;;;;5012403;28;20169;-72
2023/01/20 11:12:22;;;;;;;1999.90;999.90;;;3.30;99.90;;;;;;5012590;28;20173;-72
2023/01/20 11:14:48;;;;;;;1999.90;999.90;;;3.30;99.90;;;;;;5012573;28;20169;-72
2023/01/20 11:17:21;;;;;;;1999.90;999.90;;;3.20;99.90;;;;;;5012329;28;20224;-72
2023/01/20 11:19:52;;;;;;;1999.90;999.90;;;3.10;99.90;;;;;;5014096;28;20196;-72
2023/01/20 11:22:36;;;;;;;1999.90;999.90;;;3.10;99.90;;;;;;5014247;28;20193;-73
2023/01/20 11:25:04;;;;;;;1999.90;999.90;;;3.00;99.90;;;;;;5013916;28;20173;-73
2023/01/20 11:27:44;;;;;;;1999.90;999.90;;;2.90;99.90;;;;;;5013219;28;20165;-72
2023/01/20 11:30:27;;;;;;;1999.90;999.90;;;2.70;99.90;;;;;;5012095;28;20264;-72
2023/01/20 11:33:20;;;;;;;1999.90;999.90;;;2.60;99.90;;;;;;5012547;28;20833;-72
2023/01/20 11:36:13;;;;;;;1999.90;999.90;;;2.50;99.90;;;;;;5012592;28;20540;-72
2023/01/20 11:38:45;;;;;;;1999.90;999.90;;;2.50;99.90;;;;;;5012222;28;20177;-72
2023/01/20 11:41:21;;;;;;;1999.90;999.90;;;2.30;99.90;;;;;;5012299;28;20170;-72
2023/01/20 11:43:48;;;;;;;1999.90;999.90;;;2.20;99.90;;;;;;5012108;28;20588;-72
2023/01/20 11:46:28;;;;;;;1999.90;999.90;;;2.20;99.90;;;;;;5012069;28;20298;-72
2023/01/20 11:49:12;;;;;;;1999.90;999.90;;;2.20;99.90;;;;;;5011985;28;20634;-72
2023/01/20 11:51:52;;;;;;;1999.90;999.90;;;2.10;99.90;;;;;;5012123;28;20173;-72
2023/01/20 11:54:28;;;;;;;1999.90;999.90;;;2.10;99.90;;;;;;5012127;28;20192;-72
2023/01/20 11:57:06;;;;;;;1999.90;999.90;;;2.10;99.90;;;;;;5012162;28;20179;-72
2023/01/20 11:59:34;;;;;;;1999.90;999.90;;;2.00;99.90;;;;;;5015844;28;20179;-72
2023/01/20 12:02:01;;;;;;;1999.90;999.90;;;2.00;99.90;;;;;;5015757;28;20199;-72
2023/01/20 12:04:48;;;;;;;1999.90;999.90;;;2.00;99.90;;;;;;5015923;28;20169;-72
2023/01/20 12:07:31;;;;;;;1999.90;999.90;;;2.10;99.90;;;;;;5015659;28;20200;-72
2023/01/20 12:10:17;;;;;;;1999.90;999.90;;;2.00;99.90;;;;;;5015676;28;20195;-72
2023/01/20 12:13:04;;;;;;;1999.90;999.90;;;2.00;99.90;;;;;;5011546;28;20354;-71
2023/01/20 12:15:39;;;;;;;1999.90;999.90;;;2.00;99.90;;;;;;5015292;28;20247;-72
2023/01/20 12:18:14;;;;;;;1999.90;999.90;;;2.00;99.90;;;;;;5015340;28;20171;-72
2023/01/20 12:20:54;;;;;;;1999.90;999.90;;;2.00;99.90;;;;;;5014628;28;20173;-72
2023/01/20 12:23:48;;;;;;;1999.90;999.90;;;2.00;99.90;;;;;;5015086;28;20195;-72
2023/01/20 12:26:17;;;;;;;1999.90;999.90;;;1.90;99.90;;;;;;5014766;28;20256;-72
2023/01/20 12:29:00;;;;;;;1999.90;999.90;;;1.90;99.90;;;;;;5015173;28;20177;-72
2023/01/20 12:31:26;;;;;;;1999.90;999.90;;;1.90;99.90;;;;;;5015311;28;20647;-72
2023/01/20 12:33:55;;;;;;;1999.90;999.90;;;1.90;99.90;;;;;;5014743;28;20201;-72
2023/01/20 12:36:48;;;;;;;1999.90;999.90;;;2.00;99.90;;;;;;5015143;28;20169;-72